Terminal Aerodrome Forecast
Issued by NWS Des Moines, IA

Home | Current Version | Previous Version | Text Only | Print | Product List | Glossary On
Versions: 1 2 3 4 5 6 7 8 9 10 11 12 13 14 15 16 17 18 19 20 21 22 23 24 25 26 27 28 29 30 31 32 33 34 35 36 37
461
FTUS43 KDMX 270520
TAFALO
TAF
KALO 270520Z 2706/2806 06006KT 5SM SHRA OVC040
     FM270800 07006KT 6SM BR VCSH OVC015
     FM271000 07005KT 6SM BR OVC008
     FM271500 16004KT P6SM OVC015
     FM272100 21006KT P6SM BKN045
     FM272300 21005KT P6SM SCT200=

USA.gov is the U.S. government's official web portal to all federal, state and local government web resources and services.